sensor_id;sensor_type;location;lat;lon;timestamp;P1;durP1;ratioP1;P2;durP2;ratioP2
59014;SDS011;44799;53.382;14.666;2022-10-24T00:01:00;5.57;;;2.85;;
59014;SDS011;44799;53.382;14.666;2022-10-24T00:03:26;4.05;;;3.15;;
59014;SDS011;44799;53.382;14.666;2022-10-24T00:05:52;15.88;;;3.50;;
59014;SDS011;44799;53.382;14.666;2022-10-24T00:08:17;3.47;;;2.47;;
59014;SDS011;44799;53.382;14.666;2022-10-24T00:10:44;6.20;;;3.22;;
59014;SDS011;44799;53.382;14.666;2022-10-24T00:13:12;6.05;;;2.97;;
59014;SDS011;44799;53.382;14.666;2022-10-24T00:15:42;3.47;;;2.38;;
59014;SDS011;44799;53.382;14.666;2022-10-24T00:18:10;6.95;;;3.08;;
59014;SDS011;44799;53.382;14.666;2022-10-24T00:20:36;3.53;;;3.10;;
59014;SDS011;44799;53.382;14.666;2022-10-24T00:23:02;5.93;;;3.05;;
59014;SDS011;44799;53.382;14.666;2022-10-24T00:25:28;3.58;;;2.33;;
59014;SDS011;44799;53.382;14.666;2022-10-24T00:27:54;5.35;;;2.70;;
59014;SDS011;44799;53.382;14.666;2022-10-24T00:30:20;5.93;;;3.15;;
59014;SDS011;44799;53.382;14.666;2022-10-24T00:32:46;6.55;;;2.70;;
59014;SDS011;44799;53.382;14.666;2022-10-24T00:35:12;5.80;;;3.20;;
59014;SDS011;44799;53.382;14.666;2022-10-24T00:37:38;2.85;;;2.03;;
59014;SDS011;44799;53.382;14.666;2022-10-24T00:40:04;6.65;;;3.08;;
59014;SDS011;44799;53.382;14.666;2022-10-24T00:42:31;7.07;;;2.85;;
59014;SDS011;44799;53.382;14.666;2022-10-24T00:44:57;5.57;;;3.05;;
59014;SDS011;44799;53.382;14.666;2022-10-24T00:47:23;4.03;;;3.00;;
59014;SDS011;44799;53.382;14.666;2022-10-24T00:49:52;4.95;;;2.47;;
59014;SDS011;44799;53.382;14.666;2022-10-24T00:52:39;4.07;;;2.70;;
59014;SDS011;44799;53.382;14.666;2022-10-24T00:55:08;9.10;;;3.00;;
59014;SDS011;44799;53.382;14.666;2022-10-24T00:57:39;4.68;;;3.28;;
59014;SDS011;44799;53.382;14.666;2022-10-24T01:00:14;4.40;;;2.92;;
59014;SDS011;44799;53.382;14.666;2022-10-24T01:02:42;5.68;;;3.45;;
59014;SDS011;44799;53.382;14.666;2022-10-24T01:05:09;5.43;;;3.20;;
59014;SDS011;44799;53.382;14.666;2022-10-24T01:07:47;9.40;;;3.55;;
59014;SDS011;44799;53.382;14.666;2022-10-24T01:18:47;14.48;;;3.50;;
59014;SDS011;44799;53.382;14.666;2022-10-24T01:21:40;4.38;;;2.72;;
59014;SDS011;44799;53.382;14.666;2022-10-24T01:24:31;3.15;;;2.85;;
59014;SDS011;44799;53.382;14.666;2022-10-24T01:27:12;4.43;;;2.70;;
59014;SDS011;44799;53.382;14.666;2022-10-24T01:32:34;5.00;;;3.00;;
59014;SDS011;44799;53.382;14.666;2022-10-24T01:35:03;5.25;;;2.90;;
59014;SDS011;44799;53.382;14.666;2022-10-24T01:40:46;6.05;;;2.83;;
59014;SDS011;44799;53.382;14.666;2022-10-24T01:43:17;4.85;;;3.13;;
59014;SDS011;44799;53.382;14.666;2022-10-24T01:45:48;5.30;;;2.85;;
59014;SDS011;44799;53.382;14.666;2022-10-24T01:48:20;5.68;;;3.60;;
59014;SDS011;44799;53.382;14.666;2022-10-24T01:50:48;5.20;;;2.90;;
59014;SDS011;44799;53.382;14.666;2022-10-24T01:53:18;5.50;;;3.40;;
59014;SDS011;44799;53.382;14.666;2022-10-24T01:55:46;5.95;;;3.13;;
59014;SDS011;44799;53.382;14.666;2022-10-24T01:58:13;2.70;;;2.50;;
59014;SDS011;44799;53.382;14.666;2022-10-24T02:00:39;4.70;;;3.25;;
59014;SDS011;44799;53.382;14.666;2022-10-24T02:03:10;5.60;;;3.25;;
59014;SDS011;44799;53.382;14.666;2022-10-24T02:05:43;5.28;;;3.00;;
59014;SDS011;44799;53.382;14.666;2022-10-24T02:08:18;6.63;;;3.47;;
59014;SDS011;44799;53.382;14.666;2022-10-24T02:10:50;4.22;;;2.90;;
59014;SDS011;44799;53.382;14.666;2022-10-24T02:13:30;5.50;;;3.45;;
59014;SDS011;44799;53.382;14.666;2022-10-24T02:16:17;4.90;;;2.40;;
59014;SDS011;44799;53.382;14.666;2022-10-24T02:18:48;6.05;;;3.15;;
59014;SDS011;44799;53.382;14.666;2022-10-24T02:23:51;4.93;;;3.05;;
59014;SDS011;44799;53.382;14.666;2022-10-24T02:26:53;4.40;;;3.13;;
59014;SDS011;44799;53.382;14.666;2022-10-24T02:29:13;4.47;;;3.05;;
59014;SDS011;44799;53.382;14.666;2022-10-24T02:31:45;4.97;;;3.05;;
59014;SDS011;44799;53.382;14.666;2022-10-24T02:34:16;7.85;;;3.85;;
59014;SDS011;44799;53.382;14.666;2022-10-24T02:36:43;6.10;;;3.33;;
59014;SDS011;44799;53.382;14.666;2022-10-24T02:39:12;7.30;;;3.47;;
59014;SDS011;44799;53.382;14.666;2022-10-24T02:41:40;6.07;;;3.25;;
59014;SDS011;44799;53.382;14.666;2022-10-24T02:44:07;4.50;;;2.60;;
59014;SDS011;44799;53.382;14.666;2022-10-24T02:46:36;7.43;;;3.38;;
59014;SDS011;44799;53.382;14.666;2022-10-24T02:49:03;5.00;;;3.13;;
59014;SDS011;44799;53.382;14.666;2022-10-24T02:51:37;4.82;;;2.97;;
59014;SDS011;44799;53.382;14.666;2022-10-24T02:54:06;4.50;;;2.70;;
59014;SDS011;44799;53.382;14.666;2022-10-24T02:56:32;7.25;;;3.50;;
59014;SDS011;44799;53.382;14.666;2022-10-24T02:58:59;10.13;;;4.80;;
59014;SDS011;44799;53.382;14.666;2022-10-24T10:08:53;3.35;;;1.70;;
59014;SDS011;44799;53.382;14.666;2022-10-24T10:11:27;3.45;;;2.17;;
59014;SDS011;44799;53.382;14.666;2022-10-24T10:13:56;7.82;;;1.58;;
59014;SDS011;44799;53.382;14.666;2022-10-24T10:16:27;2.40;;;1.42;;
59014;SDS011;44799;53.382;14.666;2022-10-24T10:19:01;3.72;;;1.88;;
59014;SDS011;44799;53.382;14.666;2022-10-24T10:27:26;3.92;;;1.70;;
59014;SDS011;44799;53.382;14.666;2022-10-24T10:43:43;3.05;;;1.73;;
59014;SDS011;44799;53.382;14.666;2022-10-24T10:49:23;5.70;;;1.80;;
59014;SDS011;44799;53.382;14.666;2022-10-24T10:52:11;5.60;;;1.85;;
59014;SDS011;44799;53.382;14.666;2022-10-24T11:00:54;3.63;;;1.27;;
59014;SDS011;44799;53.382;14.666;2022-10-24T11:11:51;6.07;;;2.42;;
59014;SDS011;44799;53.382;14.666;2022-10-24T11:16:57;4.68;;;2.30;;
59014;SDS011;44799;53.382;14.666;2022-10-24T11:19:29;4.20;;;1.60;;
59014;SDS011;44799;53.382;14.666;2022-10-24T11:22:04;3.80;;;1.77;;
59014;SDS011;44799;53.382;14.666;2022-10-24T11:24:39;3.05;;;1.60;;
59014;SDS011;44799;53.382;14.666;2022-10-24T11:27:15;3.65;;;1.88;;
59014;SDS011;44799;53.382;14.666;2022-10-24T11:29:52;2.65;;;1.63;;
59014;SDS011;44799;53.382;14.666;2022-10-24T11:32:25;3.63;;;1.77;;
59014;SDS011;44799;53.382;14.666;2022-10-24T11:40:41;2.25;;;1.67;;
59014;SDS011;44799;53.382;14.666;2022-10-24T11:46:03;3.65;;;1.83;;
59014;SDS011;44799;53.382;14.666;2022-10-24T11:48:45;3.78;;;1.88;;
59014;SDS011;44799;53.382;14.666;2022-10-24T11:51:37;2.92;;;1.65;;
59014;SDS011;44799;53.382;14.666;2022-10-24T11:57:07;3.50;;;1.67;;
59014;SDS011;44799;53.382;14.666;2022-10-24T11:59:40;4.15;;;1.63;;
59014;SDS011;44799;53.382;14.666;2022-10-24T12:02:14;3.33;;;1.30;;
59014;SDS011;44799;53.382;14.666;2022-10-24T12:05:44;4.22;;;2.13;;
59014;SDS011;44799;53.382;14.666;2022-10-24T12:10:53;3.80;;;1.88;;
59014;SDS011;44799;53.382;14.666;2022-10-24T12:16:36;2.60;;;1.40;;
59014;SDS011;44799;53.382;14.666;2022-10-24T12:19:27;7.20;;;1.40;;
59014;SDS011;44799;53.382;14.666;2022-10-24T12:21:55;7.28;;;2.45;;
59014;SDS011;44799;53.382;14.666;2022-10-24T12:24:26;4.25;;;1.65;;
59014;SDS011;44799;53.382;14.666;2022-10-24T12:27:20;4.30;;;2.00;;
59014;SDS011;44799;53.382;14.666;2022-10-24T12:30:03;7.32;;;4.15;;
59014;SDS011;44799;53.382;14.666;2022-10-24T12:32:36;9.73;;;5.18;;
59014;SDS011;44799;53.382;14.666;2022-10-24T12:35:29;11.77;;;5.90;;
59014;SDS011;44799;53.382;14.666;2022-10-24T12:37:59;14.90;;;6.57;;
59014;SDS011;44799;53.382;14.666;2022-10-24T12:45:57;16.52;;;7.57;;
59014;SDS011;44799;53.382;14.666;2022-10-24T12:56:26;5.00;;;3.03;;
59014;SDS011;44799;53.382;14.666;2022-10-24T12:59:43;8.68;;;2.88;;
59014;SDS011;44799;53.382;14.666;2022-10-24T13:05:00;3.65;;;2.35;;
59014;SDS011;44799;53.382;14.666;2022-10-24T13:21:28;3.15;;;1.35;;
59014;SDS011;44799;53.382;14.666;2022-10-24T13:26:41;4.57;;;1.88;;
59014;SDS011;44799;53.382;14.666;2022-10-24T13:29:57;4.47;;;2.35;;
59014;SDS011;44799;53.382;14.666;2022-10-24T13:34:31;1.80;;;1.42;;
59014;SDS011;44799;53.382;14.666;2022-10-24T13:37:36;2.97;;;1.95;;
59014;SDS011;44799;53.382;14.666;2022-10-24T13:42:49;5.05;;;1.70;;
59014;SDS011;44799;53.382;14.666;2022-10-24T13:47:52;1.10;;;1.00;;
59014;SDS011;44799;53.382;14.666;2022-10-24T13:50:31;4.50;;;1.92;;
59014;SDS011;44799;53.382;14.666;2022-10-24T13:53:14;5.97;;;1.90;;
59014;SDS011;44799;53.382;14.666;2022-10-24T13:55:49;7.65;;;2.05;;
59014;SDS011;44799;53.382;14.666;2022-10-24T13:58:20;3.08;;;1.90;;
59014;SDS011;44799;53.382;14.666;2022-10-24T14:00:58;2.63;;;1.58;;
59014;SDS011;44799;53.382;14.666;2022-10-24T14:03:33;1.45;;;1.15;;
59014;SDS011;44799;53.382;14.666;2022-10-24T14:06:00;2.33;;;1.63;;
59014;SDS011;44799;53.382;14.666;2022-10-24T14:08:33;3.83;;;1.88;;
59014;SDS011;44799;53.382;14.666;2022-10-24T14:11:07;5.00;;;1.38;;
59014;SDS011;44799;53.382;14.666;2022-10-24T14:13:37;2.40;;;2.03;;
59014;SDS011;44799;53.382;14.666;2022-10-24T14:16:09;2.28;;;1.83;;
59014;SDS011;44799;53.382;14.666;2022-10-24T14:18:35;4.63;;;1.95;;
59014;SDS011;44799;53.382;14.666;2022-10-24T14:21:03;5.80;;;2.13;;
59014;SDS011;44799;53.382;14.666;2022-10-24T14:23:34;2.22;;;1.20;;
59014;SDS011;44799;53.382;14.666;2022-10-24T14:26:13;3.13;;;1.55;;
59014;SDS011;44799;53.382;14.666;2022-10-24T14:28:53;4.22;;;2.00;;
59014;SDS011;44799;53.382;14.666;2022-10-24T14:36:26;3.88;;;1.23;;
59014;SDS011;44799;53.382;14.666;2022-10-24T14:38:54;3.15;;;1.60;;
59014;SDS011;44799;53.382;14.666;2022-10-24T14:41:26;1.45;;;1.17;;
59014;SDS011;44799;53.382;14.666;2022-10-24T14:43:55;6.57;;;1.55;;
59014;SDS011;44799;53.382;14.666;2022-10-24T14:46:36;4.63;;;1.25;;
59014;SDS011;44799;53.382;14.666;2022-10-24T14:51:57;2.25;;;1.40;;
59014;SDS011;44799;53.382;14.666;2022-10-24T14:54:31;3.38;;;1.35;;
59014;SDS011;44799;53.382;14.666;2022-10-24T14:56:58;4.60;;;1.40;;
59014;SDS011;44799;53.382;14.666;2022-10-24T14:59:30;3.63;;;1.38;;
59014;SDS011;44799;53.382;14.666;2022-10-24T15:02:19;6.25;;;2.17;;
59014;SDS011;44799;53.382;14.666;2022-10-24T15:04:55;3.47;;;1.45;;
59014;SDS011;44799;53.382;14.666;2022-10-24T15:07:40;3.65;;;1.45;;
59014;SDS011;44799;53.382;14.666;2022-10-24T15:12:39;8.43;;;1.33;;
59014;SDS011;44799;53.382;14.666;2022-10-24T15:15:16;1.45;;;1.10;;
59014;SDS011;44799;53.382;14.666;2022-10-24T15:18:07;3.53;;;1.50;;
59014;SDS011;44799;53.382;14.666;2022-10-24T15:20:43;3.08;;;1.40;;
59014;SDS011;44799;53.382;14.666;2022-10-24T15:23:30;4.55;;;1.25;;
59014;SDS011;44799;53.382;14.666;2022-10-24T15:26:00;4.70;;;2.00;;
59014;SDS011;44799;53.382;14.666;2022-10-24T15:28:53;4.43;;;1.50;;
59014;SDS011;44799;53.382;14.666;2022-10-24T15:31:33;4.25;;;1.02;;
59014;SDS011;44799;53.382;14.666;2022-10-24T15:34:01;3.30;;;1.50;;
59014;SDS011;44799;53.382;14.666;2022-10-24T15:36:29;4.80;;;1.90;;
59014;SDS011;44799;53.382;14.666;2022-10-24T15:38:58;4.10;;;2.17;;
59014;SDS011;44799;53.382;14.666;2022-10-24T15:41:30;2.53;;;1.52;;
59014;SDS011;44799;53.382;14.666;2022-10-24T15:43:56;3.40;;;1.52;;
59014;SDS011;44799;53.382;14.666;2022-10-24T15:46:22;4.05;;;1.60;;
59014;SDS011;44799;53.382;14.666;2022-10-24T15:48:48;3.80;;;1.35;;
59014;SDS011;44799;53.382;14.666;2022-10-24T15:51:16;4.30;;;1.75;;
59014;SDS011;44799;53.382;14.666;2022-10-24T15:53:44;3.35;;;1.60;;
59014;SDS011;44799;53.382;14.666;2022-10-24T15:56:11;2.95;;;1.90;;
59014;SDS011;44799;53.382;14.666;2022-10-24T15:58:40;3.15;;;1.70;;
59014;SDS011;44799;53.382;14.666;2022-10-24T16:01:06;5.53;;;1.73;;
59014;SDS011;44799;53.382;14.666;2022-10-24T16:03:40;7.97;;;1.65;;
59014;SDS011;44799;53.382;14.666;2022-10-24T16:06:06;2.75;;;1.58;;
59014;SDS011;44799;53.382;14.666;2022-10-24T16:08:32;2.38;;;1.48;;
59014;SDS011;44799;53.382;14.666;2022-10-24T16:10:58;3.08;;;1.88;;
59014;SDS011;44799;53.382;14.666;2022-10-24T16:13:24;3.20;;;1.90;;
59014;SDS011;44799;53.382;14.666;2022-10-24T16:15:50;7.68;;;2.00;;
59014;SDS011;44799;53.382;14.666;2022-10-24T16:18:16;4.75;;;2.00;;
59014;SDS011;44799;53.382;14.666;2022-10-24T16:20:42;3.47;;;1.40;;
59014;SDS011;44799;53.382;14.666;2022-10-24T16:23:10;6.20;;;1.80;;
59014;SDS011;44799;53.382;14.666;2022-10-24T16:25:39;3.30;;;1.90;;
59014;SDS011;44799;53.382;14.666;2022-10-24T16:28:05;5.40;;;1.50;;
59014;SDS011;44799;53.382;14.666;2022-10-24T16:30:32;1.73;;;1.50;;
59014;SDS011;44799;53.382;14.666;2022-10-24T16:33:00;5.72;;;2.28;;
59014;SDS011;44799;53.382;14.666;2022-10-24T16:35:27;6.65;;;1.90;;
59014;SDS011;44799;53.382;14.666;2022-10-24T16:37:56;2.08;;;1.60;;
59014;SDS011;44799;53.382;14.666;2022-10-24T16:40:23;9.50;;;1.65;;
59014;SDS011;44799;53.382;14.666;2022-10-24T16:42:51;5.43;;;2.30;;
59014;SDS011;44799;53.382;14.666;2022-10-24T16:45:19;5.82;;;2.33;;
59014;SDS011;44799;53.382;14.666;2022-10-24T16:47:46;3.35;;;1.77;;
59014;SDS011;44799;53.382;14.666;2022-10-24T16:50:14;3.22;;;1.83;;
59014;SDS011;44799;53.382;14.666;2022-10-24T16:52:55;2.05;;;0.95;;
59014;SDS011;44799;53.382;14.666;2022-10-24T16:55:24;6.93;;;1.35;;
59014;SDS011;44799;53.382;14.666;2022-10-24T16:57:51;5.18;;;1.92;;
59014;SDS011;44799;53.382;14.666;2022-10-24T17:00:19;6.03;;;1.42;;
59014;SDS011;44799;53.382;14.666;2022-10-24T17:02:46;7.25;;;2.05;;
59014;SDS011;44799;53.382;14.666;2022-10-24T17:05:15;7.60;;;2.35;;
59014;SDS011;44799;53.382;14.666;2022-10-24T17:07:45;5.32;;;2.15;;
59014;SDS011;44799;53.382;14.666;2022-10-24T17:10:11;3.55;;;2.15;;
59014;SDS011;44799;53.382;14.666;2022-10-24T17:12:38;3.53;;;1.77;;
59014;SDS011;44799;53.382;14.666;2022-10-24T17:15:08;5.47;;;2.53;;
59014;SDS011;44799;53.382;14.666;2022-10-24T17:17:34;7.03;;;2.72;;
59014;SDS011;44799;53.382;14.666;2022-10-24T17:20:01;3.47;;;2.03;;
59014;SDS011;44799;53.382;14.666;2022-10-24T17:22:27;3.95;;;2.03;;
59014;SDS011;44799;53.382;14.666;2022-10-24T17:24:53;10.00;;;2.40;;
59014;SDS011;44799;53.382;14.666;2022-10-24T17:27:20;3.70;;;1.77;;
59014;SDS011;44799;53.382;14.666;2022-10-24T17:29:46;3.60;;;1.90;;
59014;SDS011;44799;53.382;14.666;2022-10-24T17:32:13;3.58;;;2.13;;
59014;SDS011;44799;53.382;14.666;2022-10-24T17:34:40;5.50;;;1.67;;
59014;SDS011;44799;53.382;14.666;2022-10-24T17:40:05;7.05;;;1.80;;
59014;SDS011;44799;53.382;14.666;2022-10-24T17:42:38;3.35;;;2.00;;
59014;SDS011;44799;53.382;14.666;2022-10-24T17:45:05;3.40;;;2.10;;
59014;SDS011;44799;53.382;14.666;2022-10-24T17:47:37;4.85;;;2.20;;
59014;SDS011;44799;53.382;14.666;2022-10-24T17:50:03;4.03;;;1.50;;
59014;SDS011;44799;53.382;14.666;2022-10-24T17:52:30;9.90;;;2.42;;
59014;SDS011;44799;53.382;14.666;2022-10-24T17:54:56;4.53;;;1.60;;
59014;SDS011;44799;53.382;14.666;2022-10-24T17:57:21;3.92;;;2.33;;
59014;SDS011;44799;53.382;14.666;2022-10-24T17:59:47;2.65;;;2.10;;
59014;SDS011;44799;53.382;14.666;2022-10-24T18:02:13;3.05;;;1.23;;
59014;SDS011;44799;53.382;14.666;2022-10-24T18:04:39;4.05;;;2.22;;
59014;SDS011;44799;53.382;14.666;2022-10-24T18:07:08;3.53;;;2.08;;
59014;SDS011;44799;53.382;14.666;2022-10-24T18:09:34;3.67;;;1.35;;
59014;SDS011;44799;53.382;14.666;2022-10-24T18:12:03;2.40;;;1.63;;
59014;SDS011;44799;53.382;14.666;2022-10-24T18:14:30;7.47;;;2.47;;
59014;SDS011;44799;53.382;14.666;2022-10-24T18:16:56;3.63;;;1.90;;
59014;SDS011;44799;53.382;14.666;2022-10-24T18:19:22;5.45;;;1.80;;
59014;SDS011;44799;53.382;14.666;2022-10-24T18:21:48;10.43;;;2.08;;
59014;SDS011;44799;53.382;14.666;2022-10-24T18:24:14;4.20;;;2.15;;
59014;SDS011;44799;53.382;14.666;2022-10-24T18:26:39;1.88;;;1.35;;
59014;SDS011;44799;53.382;14.666;2022-10-24T18:29:05;3.92;;;1.83;;
59014;SDS011;44799;53.382;14.666;2022-10-24T18:31:31;7.03;;;3.88;;
59014;SDS011;44799;53.382;14.666;2022-10-24T18:33:58;3.78;;;2.22;;
59014;SDS011;44799;53.382;14.666;2022-10-24T18:36:26;4.72;;;2.13;;
59014;SDS011;44799;53.382;14.666;2022-10-24T18:38:54;3.65;;;2.17;;
59014;SDS011;44799;53.382;14.666;2022-10-24T18:43:57;3.85;;;1.60;;
59014;SDS011;44799;53.382;14.666;2022-10-24T18:46:24;2.65;;;2.00;;
59014;SDS011;44799;53.382;14.666;2022-10-24T18:48:51;6.47;;;1.80;;
59014;SDS011;44799;53.382;14.666;2022-10-24T18:54:03;5.57;;;1.63;;
59014;SDS011;44799;53.382;14.666;2022-10-24T18:56:31;2.95;;;1.67;;
59014;SDS011;44799;53.382;14.666;2022-10-24T18:58:57;4.55;;;2.60;;
59014;SDS011;44799;53.382;14.666;2022-10-24T19:01:32;3.72;;;2.28;;
59014;SDS011;44799;53.382;14.666;2022-10-24T19:04:07;2.70;;;1.80;;
59014;SDS011;44799;53.382;14.666;2022-10-24T19:06:48;9.23;;;2.20;;
59014;SDS011;44799;53.382;14.666;2022-10-24T19:09:18;4.43;;;2.05;;
59014;SDS011;44799;53.382;14.666;2022-10-24T19:11:45;4.22;;;1.83;;
59014;SDS011;44799;53.382;14.666;2022-10-24T19:14:13;3.65;;;1.83;;
59014;SDS011;44799;53.382;14.666;2022-10-24T19:16:40;6.43;;;2.05;;
59014;SDS011;44799;53.382;14.666;2022-10-24T19:19:08;2.00;;;1.90;;
59014;SDS011;44799;53.382;14.666;2022-10-24T19:21:35;5.07;;;2.08;;
59014;SDS011;44799;53.382;14.666;2022-10-24T19:24:01;4.18;;;1.92;;
59014;SDS011;44799;53.382;14.666;2022-10-24T19:26:27;5.97;;;2.20;;
59014;SDS011;44799;53.382;14.666;2022-10-24T19:28:53;5.97;;;2.15;;
59014;SDS011;44799;53.382;14.666;2022-10-24T19:31:18;3.35;;;2.13;;
59014;SDS011;44799;53.382;14.666;2022-10-24T19:33:44;2.63;;;1.15;;
59014;SDS011;44799;53.382;14.666;2022-10-24T19:36:10;4.95;;;2.05;;
59014;SDS011;44799;53.382;14.666;2022-10-24T19:38:36;3.20;;;1.50;;
59014;SDS011;44799;53.382;14.666;2022-10-24T19:41:04;4.28;;;1.63;;
59014;SDS011;44799;53.382;14.666;2022-10-24T19:43:32;5.32;;;1.88;;
59014;SDS011;44799;53.382;14.666;2022-10-24T19:46:07;4.45;;;1.88;;
59014;SDS011;44799;53.382;14.666;2022-10-24T19:48:33;5.15;;;2.05;;
59014;SDS011;44799;53.382;14.666;2022-10-24T19:51:07;3.20;;;2.00;;
59014;SDS011;44799;53.382;14.666;2022-10-24T19:53:36;4.85;;;2.13;;
59014;SDS011;44799;53.382;14.666;2022-10-24T19:56:08;1.65;;;1.52;;
59014;SDS011;44799;53.382;14.666;2022-10-24T19:58:39;3.22;;;1.50;;
59014;SDS011;44799;53.382;14.666;2022-10-24T20:01:06;4.63;;;1.70;;
59014;SDS011;44799;53.382;14.666;2022-10-24T20:03:39;3.13;;;1.90;;
59014;SDS011;44799;53.382;14.666;2022-10-24T20:06:07;1.85;;;1.30;;
59014;SDS011;44799;53.382;14.666;2022-10-24T20:08:33;3.35;;;1.38;;
59014;SDS011;44799;53.382;14.666;2022-10-24T20:11:00;1.65;;;1.33;;
59014;SDS011;44799;53.382;14.666;2022-10-24T20:13:27;4.97;;;1.65;;
59014;SDS011;44799;53.382;14.666;2022-10-24T20:15:53;2.78;;;1.63;;
59014;SDS011;44799;53.382;14.666;2022-10-24T20:18:21;3.45;;;1.77;;
59014;SDS011;44799;53.382;14.666;2022-10-24T20:20:47;4.18;;;2.00;;
59014;SDS011;44799;53.382;14.666;2022-10-24T20:23:14;5.03;;;2.10;;
59014;SDS011;44799;53.382;14.666;2022-10-24T20:25:40;4.35;;;1.92;;
59014;SDS011;44799;53.382;14.666;2022-10-24T20:28:07;3.47;;;1.80;;
59014;SDS011;44799;53.382;14.666;2022-10-24T20:30:39;1.70;;;1.60;;
59014;SDS011;44799;53.382;14.666;2022-10-24T20:33:07;6.47;;;2.30;;
59014;SDS011;44799;53.382;14.666;2022-10-24T20:35:33;2.92;;;1.58;;
59014;SDS011;44799;53.382;14.666;2022-10-24T20:37:59;5.70;;;1.88;;
59014;SDS011;44799;53.382;14.666;2022-10-24T20:40:25;6.30;;;1.98;;
59014;SDS011;44799;53.382;14.666;2022-10-24T20:42:52;5.30;;;1.95;;
59014;SDS011;44799;53.382;14.666;2022-10-24T20:45:18;3.38;;;1.88;;
59014;SDS011;44799;53.382;14.666;2022-10-24T20:47:44;3.03;;;1.23;;
59014;SDS011;44799;53.382;14.666;2022-10-24T20:50:10;4.07;;;1.80;;
59014;SDS011;44799;53.382;14.666;2022-10-24T20:52:36;2.58;;;1.85;;
59014;SDS011;44799;53.382;14.666;2022-10-24T20:55:02;4.82;;;1.60;;
59014;SDS011;44799;53.382;14.666;2022-10-24T20:57:28;3.83;;;1.30;;
59014;SDS011;44799;53.382;14.666;2022-10-24T20:59:54;6.10;;;2.00;;
59014;SDS011;44799;53.382;14.666;2022-10-24T21:02:20;3.20;;;1.60;;
59014;SDS011;44799;53.382;14.666;2022-10-24T21:04:46;4.78;;;1.75;;
59014;SDS011;44799;53.382;14.666;2022-10-24T21:07:11;3.53;;;1.27;;
59014;SDS011;44799;53.382;14.666;2022-10-24T21:09:37;2.97;;;1.42;;
59014;SDS011;44799;53.382;14.666;2022-10-24T21:12:04;5.68;;;1.83;;
59014;SDS011;44799;53.382;14.666;2022-10-24T21:14:30;3.08;;;1.65;;
59014;SDS011;44799;53.382;14.666;2022-10-24T21:16:56;2.90;;;1.35;;
59014;SDS011;44799;53.382;14.666;2022-10-24T21:19:22;2.92;;;1.42;;
59014;SDS011;44799;53.382;14.666;2022-10-24T21:21:48;4.30;;;3.05;;
59014;SDS011;44799;53.382;14.666;2022-10-24T21:24:14;4.78;;;2.10;;
59014;SDS011;44799;53.382;14.666;2022-10-24T21:26:42;4.43;;;1.80;;
59014;SDS011;44799;53.382;14.666;2022-10-24T21:29:08;2.70;;;2.00;;
59014;SDS011;44799;53.382;14.666;2022-10-24T21:31:34;2.65;;;2.05;;
59014;SDS011;44799;53.382;14.666;2022-10-24T21:34:00;3.20;;;1.20;;
59014;SDS011;44799;53.382;14.666;2022-10-24T21:36:26;2.15;;;1.30;;
59014;SDS011;44799;53.382;14.666;2022-10-24T21:38:53;3.17;;;1.90;;
59014;SDS011;44799;53.382;14.666;2022-10-24T21:41:24;3.42;;;1.30;;
59014;SDS011;44799;53.382;14.666;2022-10-24T21:43:51;1.98;;;1.33;;
59014;SDS011;44799;53.382;14.666;2022-10-24T21:46:22;4.88;;;1.48;;
59014;SDS011;44799;53.382;14.666;2022-10-24T21:48:50;4.85;;;1.38;;
59014;SDS011;44799;53.382;14.666;2022-10-24T21:51:21;2.58;;;1.70;;
59014;SDS011;44799;53.382;14.666;2022-10-24T21:53:54;6.95;;;1.52;;
59014;SDS011;44799;53.382;14.666;2022-10-24T21:56:25;1.60;;;1.50;;
59014;SDS011;44799;53.382;14.666;2022-10-24T21:58:54;2.78;;;1.48;;
59014;SDS011;44799;53.382;14.666;2022-10-24T22:01:25;2.90;;;1.30;;
59014;SDS011;44799;53.382;14.666;2022-10-24T22:03:54;4.25;;;2.00;;
59014;SDS011;44799;53.382;14.666;2022-10-24T22:06:21;1.10;;;0.98;;
59014;SDS011;44799;53.382;14.666;2022-10-24T22:08:48;4.40;;;1.50;;
59014;SDS011;44799;53.382;14.666;2022-10-24T22:11:19;4.90;;;1.70;;
59014;SDS011;44799;53.382;14.666;2022-10-24T22:16:14;4.20;;;1.50;;
59014;SDS011;44799;53.382;14.666;2022-10-24T22:18:42;2.60;;;1.13;;
59014;SDS011;44799;53.382;14.666;2022-10-24T22:21:08;5.20;;;1.30;;
59014;SDS011;44799;53.382;14.666;2022-10-24T22:23:41;1.13;;;1.05;;
59014;SDS011;44799;53.382;14.666;2022-10-24T22:26:07;3.33;;;1.52;;
59014;SDS011;44799;53.382;14.666;2022-10-24T22:28:33;2.75;;;1.73;;
59014;SDS011;44799;53.382;14.666;2022-10-24T22:30:59;2.80;;;1.40;;
59014;SDS011;44799;53.382;14.666;2022-10-24T22:33:28;2.92;;;1.45;;
59014;SDS011;44799;53.382;14.666;2022-10-24T22:35:57;2.28;;;1.48;;
59014;SDS011;44799;53.382;14.666;2022-10-24T22:38:26;1.77;;;1.40;;
59014;SDS011;44799;53.382;14.666;2022-10-24T22:40:53;4.93;;;1.33;;
59014;SDS011;44799;53.382;14.666;2022-10-24T22:43:19;1.33;;;1.10;;
59014;SDS011;44799;53.382;14.666;2022-10-24T22:45:56;2.35;;;1.58;;
59014;SDS011;44799;53.382;14.666;2022-10-24T22:48:32;1.25;;;1.15;;
59014;SDS011;44799;53.382;14.666;2022-10-24T22:51:01;2.58;;;1.55;;
59014;SDS011;44799;53.382;14.666;2022-10-24T22:53:28;2.88;;;1.55;;
59014;SDS011;44799;53.382;14.666;2022-10-24T22:58:49;1.90;;;1.08;;
59014;SDS011;44799;53.382;14.666;2022-10-24T23:01:25;3.03;;;1.10;;
59014;SDS011;44799;53.382;14.666;2022-10-24T23:09:22;4.57;;;1.60;;
59014;SDS011;44799;53.382;14.666;2022-10-24T23:11:48;2.88;;;1.90;;
59014;SDS011;44799;53.382;14.666;2022-10-24T23:14:14;2.22;;;1.05;;
59014;SDS011;44799;53.382;14.666;2022-10-24T23:16:45;2.95;;;1.30;;
59014;SDS011;44799;53.382;14.666;2022-10-24T23:19:20;3.05;;;1.48;;
59014;SDS011;44799;53.382;14.666;2022-10-24T23:21:53;3.30;;;0.90;;
59014;SDS011;44799;53.382;14.666;2022-10-24T23:24:23;2.65;;;1.63;;
59014;SDS011;44799;53.382;14.666;2022-10-24T23:26:52;4.82;;;1.40;;
59014;SDS011;44799;53.382;14.666;2022-10-24T23:29:31;3.10;;;1.38;;
59014;SDS011;44799;53.382;14.666;2022-10-24T23:31:59;2.35;;;1.30;;
59014;SDS011;44799;53.382;14.666;2022-10-24T23:34:25;2.70;;;1.35;;
59014;SDS011;44799;53.382;14.666;2022-10-24T23:36:54;1.50;;;1.33;;
59014;SDS011;44799;53.382;14.666;2022-10-24T23:39:31;2.22;;;1.27;;
59014;SDS011;44799;53.382;14.666;2022-10-24T23:44:25;2.17;;;1.95;;
59014;SDS011;44799;53.382;14.666;2022-10-24T23:46:55;1.98;;;1.27;;
59014;SDS011;44799;53.382;14.666;2022-10-24T23:49:33;1.33;;;1.23;;
59014;SDS011;44799;53.382;14.666;2022-10-24T23:52:11;3.60;;;1.35;;
59014;SDS011;44799;53.382;14.666;2022-10-24T23:54:50;1.48;;;1.20;;
59014;SDS011;44799;53.382;14.666;2022-10-24T23:57:16;3.00;;;1.50;;
59014;SDS011;44799;53.382;14.666;2022-10-24T23:59:43;1.92;;;1.48;;
